sensor_id;sensor_type;location;lat;lon;timestamp;temperature;humidity
21906;DHT22;11117;48.644;9.006;2023-07-20T00:01:00;17.50;99.90
21906;DHT22;11117;48.644;9.006;2023-07-20T00:03:25;17.40;99.90
21906;DHT22;11117;48.644;9.006;2023-07-20T00:05:51;17.40;99.90
21906;DHT22;11117;48.644;9.006;2023-07-20T00:08:18;17.30;99.90
21906;DHT22;11117;48.644;9.006;2023-07-20T00:10:44;17.30;99.90
21906;DHT22;11117;48.644;9.006;2023-07-20T00:13:11;17.30;99.90
21906;DHT22;11117;48.644;9.006;2023-07-20T00:15:37;17.20;99.90
21906;DHT22;11117;48.644;9.006;2023-07-20T00:18:06;17.20;99.90
21906;DHT22;11117;48.644;9.006;2023-07-20T00:20:31;17.10;99.90
21906;DHT22;11117;48.644;9.006;2023-07-20T00:22:58;17.00;99.90
21906;DHT22;11117;48.644;9.006;2023-07-20T00:25:30;16.90;99.90
21906;DHT22;11117;48.644;9.006;2023-07-20T00:27:56;16.80;99.90
21906;DHT22;11117;48.644;9.006;2023-07-20T00:30:21;16.80;99.90
21906;DHT22;11117;48.644;9.006;2023-07-20T00:32:47;16.80;99.90
21906;DHT22;11117;48.644;9.006;2023-07-20T00:35:13;16.80;99.90
21906;DHT22;11117;48.644;9.006;2023-07-20T00:37:39;16.80;99.90
21906;DHT22;11117;48.644;9.006;2023-07-20T00:40:05;16.80;99.90
21906;DHT22;11117;48.644;9.006;2023-07-20T00:42:31;16.80;99.90
21906;DHT22;11117;48.644;9.006;2023-07-20T00:44:56;16.80;99.90
21906;DHT22;11117;48.644;9.006;2023-07-20T00:47:22;16.70;99.90
21906;DHT22;11117;48.644;9.006;2023-07-20T00:49:48;16.60;99.90
21906;DHT22;11117;48.644;9.006;2023-07-20T00:52:14;16.50;99.90
21906;DHT22;11117;48.644;9.006;2023-07-20T00:54:41;16.40;99.90
21906;DHT22;11117;48.644;9.006;2023-07-20T00:57:07;16.40;99.90
21906;DHT22;11117;48.644;9.006;2023-07-20T00:59:34;16.30;99.90
21906;DHT22;11117;48.644;9.006;2023-07-20T01:02:00;16.20;99.90
21906;DHT22;11117;48.644;9.006;2023-07-20T01:04:26;16.10;99.90
21906;DHT22;11117;48.644;9.006;2023-07-20T01:09:52;16.00;99.90
21906;DHT22;11117;48.644;9.006;2023-07-20T01:12:43;15.90;99.90
21906;DHT22;11117;48.644;9.006;2023-07-20T01:15:11;15.90;99.90
21906;DHT22;11117;48.644;9.006;2023-07-20T01:17:37;15.80;99.90
21906;DHT22;11117;48.644;9.006;2023-07-20T01:20:03;15.70;99.90
21906;DHT22;11117;48.644;9.006;2023-07-20T01:25:32;15.60;99.90
21906;DHT22;11117;48.644;9.006;2023-07-20T01:30:55;15.50;99.90
21906;DHT22;11117;48.644;9.006;2023-07-20T01:33:22;15.60;99.90
21906;DHT22;11117;48.644;9.006;2023-07-20T01:35:54;15.60;99.90
21906;DHT22;11117;48.644;9.006;2023-07-20T01:38:20;15.60;99.90
21906;DHT22;11117;48.644;9.006;2023-07-20T01:40:46;15.50;99.90
21906;DHT22;11117;48.644;9.006;2023-07-20T01:43:12;15.40;99.90
21906;DHT22;11117;48.644;9.006;2023-07-20T01:45:38;15.40;99.90
21906;DHT22;11117;48.644;9.006;2023-07-20T01:48:04;15.30;99.90
21906;DHT22;11117;48.644;9.006;2023-07-20T01:50:30;15.30;99.90
21906;DHT22;11117;48.644;9.006;2023-07-20T01:52:57;15.20;99.90
21906;DHT22;11117;48.644;9.006;2023-07-20T01:55:22;15.10;99.90
21906;DHT22;11117;48.644;9.006;2023-07-20T01:57:48;15.00;99.90
21906;DHT22;11117;48.644;9.006;2023-07-20T02:00:13;14.90;99.90
21906;DHT22;11117;48.644;9.006;2023-07-20T02:02:39;14.90;99.90
21906;DHT22;11117;48.644;9.006;2023-07-20T02:05:05;14.90;99.90
21906;DHT22;11117;48.644;9.006;2023-07-20T02:07:30;15.00;99.90
21906;DHT22;11117;48.644;9.006;2023-07-20T02:09:56;15.00;99.90
21906;DHT22;11117;48.644;9.006;2023-07-20T02:12:24;15.00;99.90
21906;DHT22;11117;48.644;9.006;2023-07-20T02:14:49;14.90;99.90
21906;DHT22;11117;48.644;9.006;2023-07-20T02:17:15;14.80;99.90
21906;DHT22;11117;48.644;9.006;2023-07-20T02:19:41;14.90;99.90
21906;DHT22;11117;48.644;9.006;2023-07-20T02:22:06;14.80;99.90
21906;DHT22;11117;48.644;9.006;2023-07-20T02:24:33;14.80;99.90
21906;DHT22;11117;48.644;9.006;2023-07-20T02:26:59;14.80;99.90
21906;DHT22;11117;48.644;9.006;2023-07-20T02:29:24;14.70;99.90
21906;DHT22;11117;48.644;9.006;2023-07-20T02:31:50;14.60;99.90
21906;DHT22;11117;48.644;9.006;2023-07-20T02:34:15;14.60;99.90
21906;DHT22;11117;48.644;9.006;2023-07-20T02:36:41;14.60;99.90
21906;DHT22;11117;48.644;9.006;2023-07-20T02:39:07;14.70;99.90
21906;DHT22;11117;48.644;9.006;2023-07-20T02:41:33;14.80;99.90
21906;DHT22;11117;48.644;9.006;2023-07-20T02:43:59;14.80;99.90
21906;DHT22;11117;48.644;9.006;2023-07-20T02:46:24;14.80;99.90
21906;DHT22;11117;48.644;9.006;2023-07-20T02:48:50;14.80;99.90
21906;DHT22;11117;48.644;9.006;2023-07-20T02:51:15;14.90;99.90
21906;DHT22;11117;48.644;9.006;2023-07-20T02:53:41;14.90;99.90
21906;DHT22;11117;48.644;9.006;2023-07-20T02:56:06;14.80;99.90
21906;DHT22;11117;48.644;9.006;2023-07-20T02:58:34;14.60;99.90
21906;DHT22;11117;48.644;9.006;2023-07-20T03:01:00;14.50;99.90
21906;DHT22;11117;48.644;9.006;2023-07-20T03:03:25;14.50;99.90
21906;DHT22;11117;48.644;9.006;2023-07-20T03:05:51;14.50;99.90
21906;DHT22;11117;48.644;9.006;2023-07-20T03:08:16;14.40;99.90
21906;DHT22;11117;48.644;9.006;2023-07-20T03:10:42;14.50;99.90
21906;DHT22;11117;48.644;9.006;2023-07-20T03:13:07;14.40;99.90
21906;DHT22;11117;48.644;9.006;2023-07-20T03:15:34;14.40;99.90
21906;DHT22;11117;48.644;9.006;2023-07-20T03:17:59;14.40;99.90
21906;DHT22;11117;48.644;9.006;2023-07-20T03:20:25;14.40;99.90
21906;DHT22;11117;48.644;9.006;2023-07-20T03:22:50;14.50;99.90
21906;DHT22;11117;48.644;9.006;2023-07-20T03:25:16;14.50;99.90
21906;DHT22;11117;48.644;9.006;2023-07-20T03:27:42;14.50;99.90
21906;DHT22;11117;48.644;9.006;2023-07-20T03:30:07;14.60;99.90
21906;DHT22;11117;48.644;9.006;2023-07-20T03:32:33;14.40;99.90
21906;DHT22;11117;48.644;9.006;2023-07-20T03:34:59;14.40;99.90
21906;DHT22;11117;48.644;9.006;2023-07-20T03:37:24;14.50;99.90
21906;DHT22;11117;48.644;9.006;2023-07-20T03:39:50;14.50;99.90
21906;DHT22;11117;48.644;9.006;2023-07-20T03:42:16;14.50;99.90
21906;DHT22;11117;48.644;9.006;2023-07-20T03:44:41;14.50;99.90
21906;DHT22;11117;48.644;9.006;2023-07-20T03:47:07;14.60;99.90
21906;DHT22;11117;48.644;9.006;2023-07-20T03:49:32;14.60;99.90
21906;DHT22;11117;48.644;9.006;2023-07-20T03:51:58;14.70;99.90
21906;DHT22;11117;48.644;9.006;2023-07-20T03:54:23;14.70;99.90
21906;DHT22;11117;48.644;9.006;2023-07-20T03:56:49;14.80;99.90
21906;DHT22;11117;48.644;9.006;2023-07-20T03:59:14;14.80;99.90
21906;DHT22;11117;48.644;9.006;2023-07-20T04:01:40;14.70;99.90
21906;DHT22;11117;48.644;9.006;2023-07-20T04:04:07;14.60;99.90
21906;DHT22;11117;48.644;9.006;2023-07-20T04:06:33;14.70;99.90
21906;DHT22;11117;48.644;9.006;2023-07-20T04:08:59;14.90;99.90
21906;DHT22;11117;48.644;9.006;2023-07-20T04:11:24;15.00;99.90
21906;DHT22;11117;48.644;9.006;2023-07-20T04:13:50;15.10;99.90
21906;DHT22;11117;48.644;9.006;2023-07-20T04:16:15;15.10;99.90
21906;DHT22;11117;48.644;9.006;2023-07-20T04:18:41;15.20;99.90
21906;DHT22;11117;48.644;9.006;2023-07-20T04:21:08;15.30;99.90
21906;DHT22;11117;48.644;9.006;2023-07-20T04:23:33;15.50;99.90
21906;DHT22;11117;48.644;9.006;2023-07-20T04:25:59;15.50;99.90
21906;DHT22;11117;48.644;9.006;2023-07-20T04:28:25;15.60;99.90
21906;DHT22;11117;48.644;9.006;2023-07-20T04:30:50;15.80;99.90
21906;DHT22;11117;48.644;9.006;2023-07-20T04:33:16;16.00;99.90
21906;DHT22;11117;48.644;9.006;2023-07-20T04:38:11;16.40;99.90
21906;DHT22;11117;48.644;9.006;2023-07-20T04:40:37;16.50;99.90
21906;DHT22;11117;48.644;9.006;2023-07-20T04:43:02;16.60;99.90
21906;DHT22;11117;48.644;9.006;2023-07-20T04:45:28;16.60;99.90
21906;DHT22;11117;48.644;9.006;2023-07-20T04:47:54;16.50;99.90
21906;DHT22;11117;48.644;9.006;2023-07-20T04:50:19;16.40;99.90
21906;DHT22;11117;48.644;9.006;2023-07-20T04:52:47;16.40;99.90
21906;DHT22;11117;48.644;9.006;2023-07-20T04:55:12;16.40;99.90
21906;DHT22;11117;48.644;9.006;2023-07-20T04:57:38;16.30;99.90
21906;DHT22;11117;48.644;9.006;2023-07-20T05:00:04;16.40;99.90
21906;DHT22;11117;48.644;9.006;2023-07-20T05:02:30;16.60;99.90
21906;DHT22;11117;48.644;9.006;2023-07-20T05:04:56;16.80;99.90
21906;DHT22;11117;48.644;9.006;2023-07-20T05:07:22;16.90;99.90
21906;DHT22;11117;48.644;9.006;2023-07-20T05:09:49;16.90;99.90
21906;DHT22;11117;48.644;9.006;2023-07-20T05:12:15;16.90;99.90
21906;DHT22;11117;48.644;9.006;2023-07-20T05:14:40;17.00;99.90
21906;DHT22;11117;48.644;9.006;2023-07-20T05:17:06;17.00;99.90
21906;DHT22;11117;48.644;9.006;2023-07-20T05:19:31;16.90;99.90
21906;DHT22;11117;48.644;9.006;2023-07-20T05:21:57;17.00;99.90
21906;DHT22;11117;48.644;9.006;2023-07-20T05:24:22;17.00;99.90
21906;DHT22;11117;48.644;9.006;2023-07-20T05:26:48;17.20;99.90
21906;DHT22;11117;48.644;9.006;2023-07-20T05:29:14;17.40;99.90
21906;DHT22;11117;48.644;9.006;2023-07-20T05:31:39;17.60;99.90
21906;DHT22;11117;48.644;9.006;2023-07-20T05:34:05;17.80;99.90
21906;DHT22;11117;48.644;9.006;2023-07-20T05:36:30;18.00;99.90
21906;DHT22;11117;48.644;9.006;2023-07-20T05:38:56;18.20;99.90
21906;DHT22;11117;48.644;9.006;2023-07-20T05:41:21;18.40;99.90
21906;DHT22;11117;48.644;9.006;2023-07-20T05:43:47;18.60;99.90
21906;DHT22;11117;48.644;9.006;2023-07-20T05:46:12;18.70;99.90
21906;DHT22;11117;48.644;9.006;2023-07-20T05:48:38;18.80;99.90
21906;DHT22;11117;48.644;9.006;2023-07-20T05:51:03;18.70;99.90
21906;DHT22;11117;48.644;9.006;2023-07-20T05:53:29;18.90;99.90
21906;DHT22;11117;48.644;9.006;2023-07-20T05:55:55;19.10;99.90
21906;DHT22;11117;48.644;9.006;2023-07-20T05:58:20;19.10;99.90
21906;DHT22;11117;48.644;9.006;2023-07-20T06:00:49;19.30;99.90
21906;DHT22;11117;48.644;9.006;2023-07-20T06:03:15;19.50;99.90
21906;DHT22;11117;48.644;9.006;2023-07-20T06:05:42;19.70;99.90
21906;DHT22;11117;48.644;9.006;2023-07-20T06:08:08;19.80;99.90
21906;DHT22;11117;48.644;9.006;2023-07-20T06:10:33;20.10;99.90
21906;DHT22;11117;48.644;9.006;2023-07-20T06:12:59;20.10;99.90
21906;DHT22;11117;48.644;9.006;2023-07-20T06:15:33;19.90;99.90
21906;DHT22;11117;48.644;9.006;2023-07-20T06:17:58;19.80;99.90
21906;DHT22;11117;48.644;9.006;2023-07-20T06:20:24;19.50;99.90
21906;DHT22;11117;48.644;9.006;2023-07-20T06:22:50;19.60;99.90
21906;DHT22;11117;48.644;9.006;2023-07-20T06:25:15;19.60;99.90
21906;DHT22;11117;48.644;9.006;2023-07-20T06:27:42;19.60;99.90
21906;DHT22;11117;48.644;9.006;2023-07-20T06:30:08;19.60;99.90
21906;DHT22;11117;48.644;9.006;2023-07-20T06:32:34;19.60;99.90
21906;DHT22;11117;48.644;9.006;2023-07-20T06:34:59;19.70;99.90
21906;DHT22;11117;48.644;9.006;2023-07-20T06:37:25;20.00;99.90
21906;DHT22;11117;48.644;9.006;2023-07-20T06:39:50;20.40;99.90
21906;DHT22;11117;48.644;9.006;2023-07-20T06:42:16;20.60;99.90
21906;DHT22;11117;48.644;9.006;2023-07-20T06:44:41;20.90;99.90
21906;DHT22;11117;48.644;9.006;2023-07-20T06:47:07;21.10;99.90
21906;DHT22;11117;48.644;9.006;2023-07-20T06:49:33;21.10;99.90
21906;DHT22;11117;48.644;9.006;2023-07-20T06:51:58;21.20;99.90
21906;DHT22;11117;48.644;9.006;2023-07-20T06:54:24;21.30;99.90
21906;DHT22;11117;48.644;9.006;2023-07-20T06:56:50;21.40;99.90
21906;DHT22;11117;48.644;9.006;2023-07-20T06:59:15;21.40;99.90
21906;DHT22;11117;48.644;9.006;2023-07-20T07:01:41;21.40;99.90
21906;DHT22;11117;48.644;9.006;2023-07-20T07:04:06;21.40;99.90
21906;DHT22;11117;48.644;9.006;2023-07-20T07:06:32;21.30;99.90
21906;DHT22;11117;48.644;9.006;2023-07-20T07:08:57;21.40;99.90
21906;DHT22;11117;48.644;9.006;2023-07-20T07:11:23;21.20;99.90
21906;DHT22;11117;48.644;9.006;2023-07-20T07:13:49;21.20;99.90
21906;DHT22;11117;48.644;9.006;2023-07-20T07:16:14;21.50;99.90
21906;DHT22;11117;48.644;9.006;2023-07-20T07:18:40;21.60;99.90
21906;DHT22;11117;48.644;9.006;2023-07-20T07:21:05;21.40;99.20
21906;DHT22;11117;48.644;9.006;2023-07-20T07:23:31;21.50;99.90
21906;DHT22;11117;48.644;9.006;2023-07-20T07:25:56;21.70;99.90
21906;DHT22;11117;48.644;9.006;2023-07-20T07:28:22;21.50;99.90
21906;DHT22;11117;48.644;9.006;2023-07-20T07:30:48;21.50;99.70
21906;DHT22;11117;48.644;9.006;2023-07-20T07:33:13;21.70;99.70
21906;DHT22;11117;48.644;9.006;2023-07-20T07:35:39;21.90;99.30
21906;DHT22;11117;48.644;9.006;2023-07-20T07:38:04;21.60;99.40
21906;DHT22;11117;48.644;9.006;2023-07-20T07:40:30;21.50;99.30
21906;DHT22;11117;48.644;9.006;2023-07-20T07:42:55;21.30;99.20
21906;DHT22;11117;48.644;9.006;2023-07-20T07:45:22;21.20;99.40
21906;DHT22;11117;48.644;9.006;2023-07-20T07:47:47;21.30;99.10
21906;DHT22;11117;48.644;9.006;2023-07-20T07:50:13;21.20;99.80
21906;DHT22;11117;48.644;9.006;2023-07-20T07:52:38;21.50;99.50
21906;DHT22;11117;48.644;9.006;2023-07-20T07:55:04;21.60;98.40
21906;DHT22;11117;48.644;9.006;2023-07-20T07:57:30;21.50;99.10
21906;DHT22;11117;48.644;9.006;2023-07-20T07:59:55;21.70;98.70
21906;DHT22;11117;48.644;9.006;2023-07-20T08:02:21;21.70;97.90
21906;DHT22;11117;48.644;9.006;2023-07-20T08:04:47;21.70;97.90
21906;DHT22;11117;48.644;9.006;2023-07-20T08:07:12;21.90;97.80
21906;DHT22;11117;48.644;9.006;2023-07-20T08:09:38;22.20;97.60
21906;DHT22;11117;48.644;9.006;2023-07-20T08:12:04;22.50;96.80
21906;DHT22;11117;48.644;9.006;2023-07-20T08:14:30;22.50;96.60
21906;DHT22;11117;48.644;9.006;2023-07-20T08:16:55;22.50;96.20
21906;DHT22;11117;48.644;9.006;2023-07-20T08:19:22;22.30;95.60
21906;DHT22;11117;48.644;9.006;2023-07-20T08:21:48;22.10;96.30
21906;DHT22;11117;48.644;9.006;2023-07-20T08:24:13;22.30;95.70
21906;DHT22;11117;48.644;9.006;2023-07-20T08:26:39;22.30;95.30
21906;DHT22;11117;48.644;9.006;2023-07-20T08:29:04;22.60;94.70
21906;DHT22;11117;48.644;9.006;2023-07-20T08:31:30;22.60;94.60
21906;DHT22;11117;48.644;9.006;2023-07-20T08:33:55;22.60;94.00
21906;DHT22;11117;48.644;9.006;2023-07-20T08:36:21;22.50;94.30
21906;DHT22;11117;48.644;9.006;2023-07-20T08:38:46;22.00;94.00
21906;DHT22;11117;48.644;9.006;2023-07-20T08:41:18;21.70;94.50
21906;DHT22;11117;48.644;9.006;2023-07-20T08:43:46;21.90;94.50
21906;DHT22;11117;48.644;9.006;2023-07-20T08:46:12;21.70;94.60
21906;DHT22;11117;48.644;9.006;2023-07-20T08:48:40;21.80;94.90
21906;DHT22;11117;48.644;9.006;2023-07-20T08:51:06;22.10;94.40
21906;DHT22;11117;48.644;9.006;2023-07-20T08:53:32;21.80;94.60
21906;DHT22;11117;48.644;9.006;2023-07-20T08:55:59;21.70;94.40
21906;DHT22;11117;48.644;9.006;2023-07-20T08:58:27;21.90;93.70
21906;DHT22;11117;48.644;9.006;2023-07-20T09:00:53;21.90;93.70
21906;DHT22;11117;48.644;9.006;2023-07-20T09:03:19;22.10;93.80
21906;DHT22;11117;48.644;9.006;2023-07-20T09:05:45;22.10;94.20
21906;DHT22;11117;48.644;9.006;2023-07-20T09:08:10;22.30;94.20
21906;DHT22;11117;48.644;9.006;2023-07-20T09:10:36;22.30;93.00
21906;DHT22;11117;48.644;9.006;2023-07-20T09:13:02;22.80;93.10
21906;DHT22;11117;48.644;9.006;2023-07-20T09:15:29;23.00;91.20
21906;DHT22;11117;48.644;9.006;2023-07-20T09:17:54;23.30;92.20
21906;DHT22;11117;48.644;9.006;2023-07-20T09:20:20;23.70;90.10
21906;DHT22;11117;48.644;9.006;2023-07-20T09:22:47;23.80;90.90
21906;DHT22;11117;48.644;9.006;2023-07-20T09:25:18;24.00;89.10
21906;DHT22;11117;48.644;9.006;2023-07-20T09:27:48;24.10;90.40
21906;DHT22;11117;48.644;9.006;2023-07-20T09:30:16;24.40;90.60
21906;DHT22;11117;48.644;9.006;2023-07-20T09:32:46;24.60;87.00
21906;DHT22;11117;48.644;9.006;2023-07-20T09:35:19;23.80;88.40
21906;DHT22;11117;48.644;9.006;2023-07-20T09:37:49;23.30;89.30
21906;DHT22;11117;48.644;9.006;2023-07-20T09:40:16;22.90;89.50
21906;DHT22;11117;48.644;9.006;2023-07-20T09:42:46;22.70;90.30
21906;DHT22;11117;48.644;9.006;2023-07-20T09:45:12;22.30;90.20
21906;DHT22;11117;48.644;9.006;2023-07-20T09:47:38;22.10;90.80
21906;DHT22;11117;48.644;9.006;2023-07-20T09:50:05;22.20;91.10
21906;DHT22;11117;48.644;9.006;2023-07-20T09:52:31;22.40;90.90
21906;DHT22;11117;48.644;9.006;2023-07-20T09:54:57;22.40;90.00
21906;DHT22;11117;48.644;9.006;2023-07-20T09:57:23;22.70;88.70
21906;DHT22;11117;48.644;9.006;2023-07-20T09:59:50;22.80;87.60
21906;DHT22;11117;48.644;9.006;2023-07-20T10:02:31;23.00;86.60
21906;DHT22;11117;48.644;9.006;2023-07-20T10:05:01;23.10;86.40
21906;DHT22;11117;48.644;9.006;2023-07-20T10:07:27;23.30;85.30
21906;DHT22;11117;48.644;9.006;2023-07-20T10:09:55;23.60;82.50
21906;DHT22;11117;48.644;9.006;2023-07-20T10:12:22;23.80;83.80
21906;DHT22;11117;48.644;9.006;2023-07-20T10:15:11;24.00;80.90
21906;DHT22;11117;48.644;9.006;2023-07-20T10:17:43;23.50;82.70
21906;DHT22;11117;48.644;9.006;2023-07-20T10:20:11;23.20;83.90
21906;DHT22;11117;48.644;9.006;2023-07-20T10:22:38;23.40;84.80
21906;DHT22;11117;48.644;9.006;2023-07-20T10:25:04;23.60;83.50
21906;DHT22;11117;48.644;9.006;2023-07-20T10:27:30;23.80;83.00
21906;DHT22;11117;48.644;9.006;2023-07-20T10:29:58;23.90;82.30
21906;DHT22;11117;48.644;9.006;2023-07-20T10:32:24;24.00;81.00
21906;DHT22;11117;48.644;9.006;2023-07-20T10:34:56;23.90;81.70
21906;DHT22;11117;48.644;9.006;2023-07-20T10:37:48;23.80;81.20
21906;DHT22;11117;48.644;9.006;2023-07-20T10:40:30;23.50;80.50
21906;DHT22;11117;48.644;9.006;2023-07-20T10:43:00;23.50;80.40
21906;DHT22;11117;48.644;9.006;2023-07-20T10:45:48;23.80;81.80
21906;DHT22;11117;48.644;9.006;2023-07-20T10:48:24;24.20;80.30
21906;DHT22;11117;48.644;9.006;2023-07-20T10:51:12;24.40;78.30
21906;DHT22;11117;48.644;9.006;2023-07-20T10:53:38;24.80;79.00
21906;DHT22;11117;48.644;9.006;2023-07-20T10:56:12;25.10;76.90
21906;DHT22;11117;48.644;9.006;2023-07-20T10:58:38;24.70;73.50
21906;DHT22;11117;48.644;9.006;2023-07-20T11:01:04;25.00;74.30
21906;DHT22;11117;48.644;9.006;2023-07-20T11:03:34;24.80;74.60
21906;DHT22;11117;48.644;9.006;2023-07-20T11:08:56;24.90;77.30
21906;DHT22;11117;48.644;9.006;2023-07-20T11:11:30;25.20;75.80
21906;DHT22;11117;48.644;9.006;2023-07-20T11:13:57;25.00;75.90
21906;DHT22;11117;48.644;9.006;2023-07-20T11:16:36;24.80;76.80
21906;DHT22;11117;48.644;9.006;2023-07-20T11:19:03;25.10;75.70
21906;DHT22;11117;48.644;9.006;2023-07-20T11:21:30;25.40;73.40
21906;DHT22;11117;48.644;9.006;2023-07-20T11:24:03;25.80;75.60
21906;DHT22;11117;48.644;9.006;2023-07-20T11:26:29;26.20;76.90
21906;DHT22;11117;48.644;9.006;2023-07-20T11:28:54;26.60;72.20
21906;DHT22;11117;48.644;9.006;2023-07-20T11:31:20;27.00;72.40
21906;DHT22;11117;48.644;9.006;2023-07-20T11:33:46;26.90;70.60
21906;DHT22;11117;48.644;9.006;2023-07-20T11:36:12;26.40;69.70
21906;DHT22;11117;48.644;9.006;2023-07-20T11:38:42;26.40;73.30
21906;DHT22;11117;48.644;9.006;2023-07-20T11:41:12;26.60;69.20
21906;DHT22;11117;48.644;9.006;2023-07-20T11:43:39;26.20;69.20
21906;DHT22;11117;48.644;9.006;2023-07-20T11:46:06;26.00;71.60
21906;DHT22;11117;48.644;9.006;2023-07-20T11:48:31;25.30;72.80
21906;DHT22;11117;48.644;9.006;2023-07-20T11:50:57;24.90;70.90
21906;DHT22;11117;48.644;9.006;2023-07-20T11:53:24;24.50;71.90
21906;DHT22;11117;48.644;9.006;2023-07-20T11:55:51;24.10;72.40
21906;DHT22;11117;48.644;9.006;2023-07-20T11:58:17;24.20;72.90
21906;DHT22;11117;48.644;9.006;2023-07-20T12:00:45;24.10;73.30
21906;DHT22;11117;48.644;9.006;2023-07-20T12:03:12;24.20;73.40
21906;DHT22;11117;48.644;9.006;2023-07-20T12:05:43;24.30;73.10
21906;DHT22;11117;48.644;9.006;2023-07-20T12:08:09;24.60;74.00
21906;DHT22;11117;48.644;9.006;2023-07-20T12:10:39;24.80;73.50
21906;DHT22;11117;48.644;9.006;2023-07-20T12:13:05;24.50;70.70
21906;DHT22;11117;48.644;9.006;2023-07-20T12:15:31;24.20;71.40
21906;DHT22;11117;48.644;9.006;2023-07-20T12:18:01;24.60;72.50
21906;DHT22;11117;48.644;9.006;2023-07-20T12:20:33;25.10;72.40
21906;DHT22;11117;48.644;9.006;2023-07-20T12:23:01;25.20;70.70
21906;DHT22;11117;48.644;9.006;2023-07-20T12:28:05;24.80;71.80
21906;DHT22;11117;48.644;9.006;2023-07-20T12:30:31;24.60;71.90
21906;DHT22;11117;48.644;9.006;2023-07-20T12:32:56;24.40;72.70
21906;DHT22;11117;48.644;9.006;2023-07-20T12:35:22;24.60;73.00
21906;DHT22;11117;48.644;9.006;2023-07-20T12:37:48;24.80;73.10
21906;DHT22;11117;48.644;9.006;2023-07-20T12:40:13;25.10;73.80
21906;DHT22;11117;48.644;9.006;2023-07-20T12:42:42;25.30;71.80
21906;DHT22;11117;48.644;9.006;2023-07-20T12:45:13;25.50;73.90
21906;DHT22;11117;48.644;9.006;2023-07-20T12:47:40;25.50;71.10
21906;DHT22;11117;48.644;9.006;2023-07-20T12:50:07;25.60;69.20
21906;DHT22;11117;48.644;9.006;2023-07-20T12:52:36;25.50;70.70
21906;DHT22;11117;48.644;9.006;2023-07-20T12:55:02;25.40;70.70
21906;DHT22;11117;48.644;9.006;2023-07-20T12:57:28;25.30;71.50
21906;DHT22;11117;48.644;9.006;2023-07-20T12:59:54;25.20;71.80
21906;DHT22;11117;48.644;9.006;2023-07-20T13:02:19;25.30;71.80
21906;DHT22;11117;48.644;9.006;2023-07-20T13:04:45;25.20;70.70
21906;DHT22;11117;48.644;9.006;2023-07-20T13:07:13;25.00;69.80
21906;DHT22;11117;48.644;9.006;2023-07-20T13:09:39;25.00;70.50
21906;DHT22;11117;48.644;9.006;2023-07-20T13:12:05;24.80;68.50
21906;DHT22;11117;48.644;9.006;2023-07-20T13:14:30;25.10;70.40
21906;DHT22;11117;48.644;9.006;2023-07-20T13:16:56;25.40;69.70
21906;DHT22;11117;48.644;9.006;2023-07-20T13:19:21;25.60;69.70
21906;DHT22;11117;48.644;9.006;2023-07-20T13:21:47;25.60;69.50
21906;DHT22;11117;48.644;9.006;2023-07-20T13:24:13;25.40;70.70
21906;DHT22;11117;48.644;9.006;2023-07-20T13:26:38;25.20;69.50
21906;DHT22;11117;48.644;9.006;2023-07-20T13:29:04;24.90;69.90
21906;DHT22;11117;48.644;9.006;2023-07-20T13:31:33;24.60;70.00
21906;DHT22;11117;48.644;9.006;2023-07-20T13:33:59;24.40;70.10
21906;DHT22;11117;48.644;9.006;2023-07-20T13:36:27;24.70;71.00
21906;DHT22;11117;48.644;9.006;2023-07-20T13:38:56;24.80;70.30
21906;DHT22;11117;48.644;9.006;2023-07-20T13:41:21;25.00;69.40
21906;DHT22;11117;48.644;9.006;2023-07-20T13:43:47;25.20;69.70
21906;DHT22;11117;48.644;9.006;2023-07-20T13:46:15;25.20;69.60
21906;DHT22;11117;48.644;9.006;2023-07-20T13:48:41;25.20;70.20
21906;DHT22;11117;48.644;9.006;2023-07-20T13:51:07;25.10;70.00
21906;DHT22;11117;48.644;9.006;2023-07-20T13:53:32;24.80;69.00
21906;DHT22;11117;48.644;9.006;2023-07-20T13:56:05;25.00;69.70
21906;DHT22;11117;48.644;9.006;2023-07-20T13:58:37;25.20;70.20
21906;DHT22;11117;48.644;9.006;2023-07-20T14:01:03;25.20;68.50
21906;DHT22;11117;48.644;9.006;2023-07-20T14:03:31;25.00;67.20
21906;DHT22;11117;48.644;9.006;2023-07-20T14:05:56;25.20;69.60
21906;DHT22;11117;48.644;9.006;2023-07-20T14:08:22;25.20;69.00
21906;DHT22;11117;48.644;9.006;2023-07-20T14:10:48;25.40;69.70
21906;DHT22;11117;48.644;9.006;2023-07-20T14:13:14;25.30;66.70
21906;DHT22;11117;48.644;9.006;2023-07-20T14:15:40;25.30;67.70
21906;DHT22;11117;48.644;9.006;2023-07-20T14:18:05;25.20;68.90
21906;DHT22;11117;48.644;9.006;2023-07-20T14:20:31;25.10;68.70
21906;DHT22;11117;48.644;9.006;2023-07-20T14:22:57;25.10;69.30
21906;DHT22;11117;48.644;9.006;2023-07-20T14:25:22;25.20;68.10
21906;DHT22;11117;48.644;9.006;2023-07-20T14:27:48;25.30;69.50
21906;DHT22;11117;48.644;9.006;2023-07-20T14:30:14;25.00;69.10
21906;DHT22;11117;48.644;9.006;2023-07-20T14:32:40;25.00;70.10
21906;DHT22;11117;48.644;9.006;2023-07-20T14:35:15;25.00;68.90
21906;DHT22;11117;48.644;9.006;2023-07-20T14:38:06;24.60;68.60
21906;DHT22;11117;48.644;9.006;2023-07-20T14:40:31;24.80;69.70
21906;DHT22;11117;48.644;9.006;2023-07-20T14:43:07;24.80;69.10
21906;DHT22;11117;48.644;9.006;2023-07-20T14:45:36;24.80;69.40
21906;DHT22;11117;48.644;9.006;2023-07-20T14:51:05;24.80;69.80
21906;DHT22;11117;48.644;9.006;2023-07-20T14:53:33;25.00;69.60
21906;DHT22;11117;48.644;9.006;2023-07-20T14:56:00;25.20;69.70
21906;DHT22;11117;48.644;9.006;2023-07-20T14:58:42;25.00;68.60
21906;DHT22;11117;48.644;9.006;2023-07-20T15:01:11;25.30;68.50
21906;DHT22;11117;48.644;9.006;2023-07-20T15:03:36;25.40;69.00
21906;DHT22;11117;48.644;9.006;2023-07-20T15:06:04;25.30;68.50
21906;DHT22;11117;48.644;9.006;2023-07-20T15:08:35;25.00;69.20
21906;DHT22;11117;48.644;9.006;2023-07-20T15:11:01;24.90;69.20
21906;DHT22;11117;48.644;9.006;2023-07-20T15:13:26;25.10;69.00
21906;DHT22;11117;48.644;9.006;2023-07-20T15:15:52;25.30;69.60
21906;DHT22;11117;48.644;9.006;2023-07-20T15:18:17;25.30;69.60
21906;DHT22;11117;48.644;9.006;2023-07-20T15:20:43;25.20;69.40
21906;DHT22;11117;48.644;9.006;2023-07-20T15:23:11;25.30;69.50
21906;DHT22;11117;48.644;9.006;2023-07-20T15:25:37;25.30;68.90
21906;DHT22;11117;48.644;9.006;2023-07-20T15:28:03;25.30;69.20
21906;DHT22;11117;48.644;9.006;2023-07-20T15:30:29;25.30;69.40
21906;DHT22;11117;48.644;9.006;2023-07-20T15:32:55;25.40;69.30
21906;DHT22;11117;48.644;9.006;2023-07-20T15:35:20;25.60;70.10
21906;DHT22;11117;48.644;9.006;2023-07-20T15:37:47;25.60;69.20
21906;DHT22;11117;48.644;9.006;2023-07-20T15:40:12;25.60;68.60
21906;DHT22;11117;48.644;9.006;2023-07-20T15:42:48;25.80;69.70
21906;DHT22;11117;48.644;9.006;2023-07-20T15:45:14;25.70;69.70
21906;DHT22;11117;48.644;9.006;2023-07-20T15:47:43;25.60;69.50